Time;durP1;ratioP1;P1;durP2;ratioP2;P2;SDS_P1;SDS_P2;PMS_P1;PMS_P2;Temp;Humidity;BMP_temperature;BMP_pressure;BME280_temperature;BME280_humidity;BME280_pressure;Samples;Min_cycle;Max_cycle;Signal;HPM_P1;HPM_P2
2024/01/08 00:00:29;;;;;;;113.30;106.63;;;6.00;99.90;;;;;;4989485;28;20040;-72
2024/01/08 00:02:55;;;;;;;110.17;103.83;;;6.00;99.90;;;;;;4990155;28;20030;-72
2024/01/08 00:05:21;;;;;;;240.10;226.27;;;6.00;99.90;;;;;;4989397;28;20361;-72
2024/01/08 00:07:48;;;;;;;393.60;369.57;;;6.00;99.90;;;;;;4989889;28;20035;-72
2024/01/08 00:10:17;;;;;;;189.07;178.33;;;6.00;99.90;;;;;;4989758;28;20392;-72
2024/01/08 00:12:43;;;;;;;159.37;150.43;;;6.00;99.90;;;;;;4990369;28;19925;-84
2024/01/08 00:15:09;;;;;;;100.63;94.67;;;6.00;99.90;;;;;;4990913;28;20038;-84
2024/01/08 00:17:35;;;;;;;93.07;87.77;;;6.00;99.90;;;;;;4973266;28;20465;-84
2024/01/08 00:20:01;;;;;;;107.20;101.10;;;6.00;99.90;;;;;;4993159;28;20045;-84
2024/01/08 00:22:27;;;;;;;66.00;61.87;;;5.90;99.90;;;;;;4990780;28;20043;-84
2024/01/08 00:24:53;;;;;;;354.47;332.50;;;6.00;99.90;;;;;;4989888;28;20038;-83
2024/01/08 00:27:19;;;;;;;355.70;334.27;;;6.00;99.90;;;;;;4990127;28;20053;-83
2024/01/08 00:29:45;;;;;;;327.30;306.63;;;6.00;99.90;;;;;;4989617;28;20038;-84
2024/01/08 00:32:11;;;;;;;245.00;230.33;;;6.00;99.90;;;;;;4989007;28;20496;-84
2024/01/08 00:34:40;;;;;;;309.33;291.97;;;6.00;99.90;;;;;;4989861;28;20027;-83
2024/01/08 00:37:06;;;;;;;201.50;190.53;;;6.00;99.90;;;;;;4990208;28;20077;-84
2024/01/08 00:39:32;;;;;;;203.53;191.73;;;6.00;99.90;;;;;;4989231;28;20039;-84
2024/01/08 00:41:58;;;;;;;266.97;251.37;;;6.00;99.90;;;;;;4989614;28;20473;-84
2024/01/08 00:44:24;;;;;;;133.70;126.03;;;6.00;99.90;;;;;;4989719;28;20034;-83
2024/01/08 00:46:50;;;;;;;92.93;87.47;;;6.10;99.90;;;;;;4989457;28;20046;-83
2024/01/08 00:49:16;;;;;;;121.43;114.17;;;6.10;99.90;;;;;;4989615;28;20034;-84
2024/01/08 00:51:42;;;;;;;119.93;113.00;;;6.10;99.90;;;;;;4989644;28;20499;-84
2024/01/08 00:54:08;;;;;;;80.03;74.73;;;6.10;99.90;;;;;;4989716;28;20038;-84
2024/01/08 00:56:35;;;;;;;79.50;74.30;;;6.10;99.90;;;;;;4987446;28;20051;-84
2024/01/08 00:59:01;;;;;;;94.90;89.30;;;6.10;99.90;;;;;;4989446;28;20052;-84
2024/01/08 01:01:27;;;;;;;85.67;80.57;;;6.20;99.90;;;;;;4988723;28;20041;-84
2024/01/08 01:03:53;;;;;;;300.20;281.70;;;6.20;99.90;;;;;;4989305;28;20061;-84
2024/01/08 01:06:23;;;;;;;185.90;174.87;;;6.10;99.90;;;;;;4988821;28;20520;-85
2024/01/08 01:08:49;;;;;;;246.50;232.00;;;6.00;99.90;;;;;;4993009;28;20046;-83
2024/01/08 01:11:16;;;;;;;199.00;187.70;;;6.00;99.90;;;;;;4995312;28;20042;-84
2024/01/08 01:13:42;;;;;;;122.43;115.30;;;5.90;99.90;;;;;;4991995;28;20539;-76
2024/01/08 01:16:08;;;;;;;158.40;149.67;;;5.90;99.90;;;;;;4991004;28;20037;-77
2024/01/08 01:18:34;;;;;;;168.93;159.53;;;5.90;99.90;;;;;;4992604;28;20051;-77
2024/01/08 01:21:00;;;;;;;130.60;122.90;;;5.90;99.90;;;;;;4993771;28;20037;-76
2024/01/08 01:23:26;;;;;;;248.53;234.53;;;5.90;99.90;;;;;;5006496;28;20046;-77
2024/01/08 01:25:52;;;;;;;138.13;130.17;;;5.80;99.90;;;;;;4990837;28;20042;-76
2024/01/08 01:28:19;;;;;;;188.50;178.13;;;5.90;99.90;;;;;;4992589;28;20033;-76
2024/01/08 01:30:45;;;;;;;89.17;84.33;;;5.90;99.90;;;;;;4991558;28;20039;-76
2024/01/08 01:33:11;;;;;;;252.60;238.53;;;5.80;99.90;;;;;;4990660;28;20042;-76
2024/01/08 01:35:37;;;;;;;180.10;169.73;;;5.80;99.90;;;;;;4992299;28;20031;-76
2024/01/08 01:38:03;;;;;;;219.53;207.07;;;5.80;99.90;;;;;;4992342;28;20471;-76
2024/01/08 01:40:29;;;;;;;154.43;145.73;;;5.80;99.90;;;;;;4991649;28;20062;-76
2024/01/08 01:42:55;;;;;;;89.20;84.30;;;5.80;99.90;;;;;;4992194;28;20038;-76
2024/01/08 01:45:22;;;;;;;128.70;121.33;;;5.70;99.90;;;;;;4991982;28;20038;-76
2024/01/08 01:47:50;;;;;;;283.33;267.43;;;5.70;99.90;;;;;;4991806;28;20038;-76
2024/01/08 01:50:16;;;;;;;256.13;241.30;;;5.80;99.90;;;;;;4990814;28;20026;-76
2024/01/08 01:52:42;;;;;;;123.33;116.50;;;5.80;99.90;;;;;;4990172;28;20034;-76
2024/01/08 01:55:10;;;;;;;108.57;102.43;;;5.80;99.90;;;;;;4990895;28;20034;-76
2024/01/08 01:57:36;;;;;;;145.83;137.73;;;5.80;99.90;;;;;;4987604;28;20031;-76
2024/01/08 02:00:03;;;;;;;135.30;128.10;;;5.70;99.90;;;;;;4991004;28;20046;-76
2024/01/08 02:02:30;;;;;;;103.93;98.47;;;5.60;99.90;;;;;;5005414;28;20043;-76
2024/01/08 02:04:56;;;;;;;200.83;189.37;;;5.60;99.90;;;;;;4990867;28;20034;-77
2024/01/08 02:07:22;;;;;;;143.70;135.87;;;5.60;99.90;;;;;;4990204;28;20050;-76
2024/01/08 02:09:48;;;;;;;203.77;192.07;;;5.60;99.90;;;;;;4989517;28;20046;-76
2024/01/08 02:12:18;;;;;;;157.13;148.77;;;5.60;99.90;;;;;;4991439;28;20034;-76
2024/01/08 02:14:44;;;;;;;108.20;102.13;;;5.60;99.90;;;;;;4987125;28;20057;-76
2024/01/08 02:17:10;;;;;;;86.10;80.73;;;5.50;99.90;;;;;;4990383;28;20046;-84
2024/01/08 02:19:36;;;;;;;91.73;86.40;;;5.50;99.90;;;;;;4991376;28;20039;-84
2024/01/08 02:22:02;;;;;;;83.60;78.53;;;5.50;99.90;;;;;;5039113;28;20036;-84
2024/01/08 02:24:29;;;;;;;145.20;136.90;;;5.50;99.90;;;;;;4995261;28;20248;-83
2024/01/08 02:26:57;;;;;;;90.43;85.60;;;5.50;99.90;;;;;;4991850;28;20523;-83
2024/01/08 02:29:24;;;;;;;70.93;66.50;;;5.50;99.90;;;;;;4990324;28;20046;-84
2024/01/08 02:31:50;;;;;;;122.73;115.57;;;5.40;99.90;;;;;;4991139;28;20038;-84
2024/01/08 02:34:16;;;;;;;74.03;69.87;;;5.40;99.90;;;;;;4990165;28;20132;-84
2024/01/08 02:36:42;;;;;;;169.97;160.37;;;5.30;99.90;;;;;;4991239;28;20041;-85
2024/01/08 02:39:08;;;;;;;108.90;102.27;;;5.30;99.90;;;;;;4991079;28;20484;-86
2024/01/08 02:41:35;;;;;;;109.43;103.03;;;5.30;99.90;;;;;;4991304;28;20085;-86
2024/01/08 02:44:01;;;;;;;55.87;52.47;;;5.30;99.90;;;;;;4991425;28;20034;-83
2024/01/08 02:46:27;;;;;;;63.63;59.70;;;5.20;99.90;;;;;;4991298;28;20050;-85
2024/01/08 02:48:53;;;;;;;68.63;64.30;;;5.20;99.90;;;;;;4990890;28;20408;-84
2024/01/08 02:51:20;;;;;;;85.30;79.97;;;5.20;99.90;;;;;;4990769;28;20035;-86
2024/01/08 02:53:46;;;;;;;92.90;87.17;;;5.20;99.90;;;;;;4991368;28;20440;-86
2024/01/08 02:56:21;;;;;;;96.30;90.33;;;5.20;99.90;;;;;;4991382;28;20041;-83
2024/01/08 02:58:47;;;;;;;99.23;93.13;;;5.20;99.90;;;;;;4989607;28;20377;-86
2024/01/08 03:01:13;;;;;;;117.47;110.47;;;5.30;99.90;;;;;;4988830;28;20043;-86
2024/01/08 03:03:40;;;;;;;97.40;91.40;;;5.30;99.90;;;;;;4987420;28;20034;-86
2024/01/08 03:06:06;;;;;;;109.83;103.10;;;5.20;99.90;;;;;;4983730;28;20485;-85
2024/01/08 03:08:32;;;;;;;124.07;117.17;;;5.30;99.90;;;;;;5031278;28;20028;-85
2024/01/08 03:10:58;;;;;;;110.33;104.03;;;5.30;99.90;;;;;;5010465;28;20058;-86
2024/01/08 03:13:24;;;;;;;150.47;141.73;;;5.20;99.90;;;;;;4989568;28;20030;-84
2024/01/08 03:15:50;;;;;;;130.93;123.17;;;5.20;99.90;;;;;;4988858;28;20045;-86
2024/01/08 03:18:16;;;;;;;224.73;211.80;;;5.10;99.90;;;;;;4989574;28;20033;-86
2024/01/08 03:20:42;;;;;;;160.40;150.80;;;5.10;99.90;;;;;;4988629;28;20507;-85
2024/01/08 03:23:11;;;;;;;72.30;67.30;;;5.10;99.90;;;;;;5067388;28;20033;-85
2024/01/08 03:25:37;;;;;;;176.97;165.73;;;5.00;99.90;;;;;;4989163;28;20053;-77
2024/01/08 03:28:04;;;;;;;78.47;73.17;;;4.90;99.90;;;;;;4989020;28;20027;-77
2024/01/08 03:30:30;;;;;;;103.33;96.40;;;4.80;99.90;;;;;;4991480;28;20049;-77
2024/01/08 03:32:56;;;;;;;119.37;111.73;;;4.70;99.90;;;;;;4989038;28;20560;-77
2024/01/08 03:35:22;;;;;;;137.70;129.07;;;4.70;99.90;;;;;;4988749;28;20039;-77
2024/01/08 03:37:48;;;;;;;145.43;136.50;;;4.60;99.90;;;;;;4988721;28;20030;-77
2024/01/08 03:40:15;;;;;;;181.33;170.30;;;4.60;99.90;;;;;;4990127;28;20043;-77
2024/01/08 03:42:41;;;;;;;213.07;200.90;;;4.60;99.90;;;;;;4989210;28;20033;-77
2024/01/08 03:45:08;;;;;;;112.13;104.83;;;4.60;99.90;;;;;;4988480;27;20022;-76
2024/01/08 03:47:35;;;;;;;205.07;192.70;;;4.50;99.90;;;;;;4990575;28;20045;-77
2024/01/08 03:50:01;;;;;;;206.20;193.80;;;4.50;99.90;;;;;;4988584;28;20059;-77
2024/01/08 03:52:27;;;;;;;75.73;70.50;;;4.50;99.90;;;;;;4990048;28;20358;-77
2024/01/08 03:54:53;;;;;;;128.77;120.67;;;4.40;99.90;;;;;;4989337;28;20041;-76
2024/01/08 03:57:19;;;;;;;155.93;146.60;;;4.30;99.90;;;;;;4990223;28;20042;-77
2024/01/08 03:59:46;;;;;;;85.93;80.63;;;4.40;99.90;;;;;;4989987;28;20046;-77
2024/01/08 04:02:12;;;;;;;86.93;81.30;;;4.30;99.90;;;;;;4989386;27;20030;-77
2024/01/08 04:04:42;;;;;;;133.73;125.00;;;4.30;99.90;;;;;;4989865;28;20054;-77
2024/01/08 04:07:10;;;;;;;102.77;96.23;;;4.20;99.90;;;;;;4989053;28;20034;-78
2024/01/08 04:09:36;;;;;;;79.10;73.50;;;4.20;99.90;;;;;;4990047;28;20372;-77
2024/01/08 04:12:04;;;;;;;127.93;119.63;;;4.10;99.90;;;;;;4989125;28;20035;-77
2024/01/08 04:14:31;;;;;;;175.97;165.17;;;4.20;99.90;;;;;;4989976;28;20034;-77
2024/01/08 04:16:57;;;;;;;82.67;77.87;;;4.30;99.90;;;;;;4989115;28;20392;-77
2024/01/08 04:19:23;;;;;;;84.47;78.23;;;4.20;99.90;;;;;;4989465;28;20396;-77
2024/01/08 04:21:49;;;;;;;79.30;73.17;;;4.10;99.90;;;;;;5028232;28;20032;-77
2024/01/08 04:24:16;;;;;;;73.17;67.70;;;4.20;99.90;;;;;;5090190;28;20036;-77
2024/01/08 04:26:42;;;;;;;65.30;60.23;;;4.20;99.90;;;;;;5025115;28;20033;-72
2024/01/08 04:29:10;;;;;;;82.67;76.80;;;4.10;99.90;;;;;;4989508;28;20488;-71
2024/01/08 04:31:37;;;;;;;62.20;57.57;;;4.10;99.90;;;;;;4988717;28;20381;-71
2024/01/08 04:34:03;;;;;;;105.17;98.53;;;4.00;99.90;;;;;;4989562;28;20025;-71
2024/01/08 04:36:29;;;;;;;209.93;196.77;;;3.90;99.90;;;;;;4989833;28;20416;-72
2024/01/08 04:38:55;;;;;;;148.83;140.20;;;3.80;99.90;;;;;;4989476;28;20023;-71
2024/01/08 04:41:21;;;;;;;149.60;140.37;;;3.80;99.90;;;;;;4989256;28;20778;-71
2024/01/08 04:43:47;;;;;;;115.40;108.10;;;3.90;99.90;;;;;;4992943;28;20034;-71
2024/01/08 04:46:14;;;;;;;53.20;49.70;;;3.80;99.90;;;;;;4992789;27;20038;-71
2024/01/08 04:48:41;;;;;;;94.07;87.83;;;3.80;99.90;;;;;;4992655;28;20030;-72
2024/01/08 04:51:07;;;;;;;161.20;152.20;;;3.80;99.90;;;;;;4990595;28;20045;-72
2024/01/08 04:53:34;;;;;;;139.97;131.67;;;3.70;99.90;;;;;;4993110;28;20022;-72
2024/01/08 04:56:01;;;;;;;98.80;92.10;;;3.80;99.90;;;;;;4992003;28;20030;-72
2024/01/08 04:58:27;;;;;;;113.37;106.07;;;3.70;99.90;;;;;;4993269;28;20042;-72
2024/01/08 05:00:53;;;;;;;113.63;106.27;;;3.80;99.90;;;;;;4992050;28;20054;-71
2024/01/08 05:03:19;;;;;;;94.90;88.63;;;3.80;99.90;;;;;;4992221;28;20061;-71
2024/01/08 05:05:45;;;;;;;67.97;62.97;;;3.80;99.90;;;;;;4992573;28;20388;-72
2024/01/08 05:08:11;;;;;;;72.93;67.80;;;3.80;99.90;;;;;;4991459;28;20038;-72
2024/01/08 05:10:38;;;;;;;49.30;45.20;;;3.80;99.90;;;;;;4992416;28;20038;-72
2024/01/08 05:13:04;;;;;;;54.83;51.00;;;3.80;99.90;;;;;;4992730;28;20034;-71
2024/01/08 05:15:32;;;;;;;68.77;63.87;;;3.80;99.90;;;;;;4991954;28;20038;-71
2024/01/08 05:17:58;;;;;;;67.13;62.40;;;3.80;99.90;;;;;;4992033;28;20042;-72
2024/01/08 05:20:24;;;;;;;61.90;56.93;;;3.80;99.90;;;;;;4992221;28;20042;-72
2024/01/08 05:22:50;;;;;;;88.83;82.63;;;3.70;99.90;;;;;;5043113;28;20026;-72
2024/01/08 05:25:16;;;;;;;87.73;81.97;;;3.70;99.90;;;;;;4991980;28;20034;-72
2024/01/08 05:27:42;;;;;;;73.00;68.00;;;3.70;99.90;;;;;;4992509;28;20030;-71
2024/01/08 05:30:09;;;;;;;712.00;375.80;;;3.60;99.90;;;;;;4989439;28;20034;-71
2024/01/08 05:32:35;;;;;;;1999.90;999.90;;;3.50;99.90;;;;;;4991350;28;20039;-71
2024/01/08 05:35:01;;;;;;;1999.90;999.90;;;3.40;99.90;;;;;;4992997;28;20038;-87
2024/01/08 05:37:27;;;;;;;1999.90;999.90;;;3.30;99.90;;;;;;5091402;28;20032;-86
2024/01/08 05:39:53;;;;;;;1999.90;999.90;;;3.30;99.90;;;;;;5034342;28;20050;-87
2024/01/08 05:42:19;;;;;;;1999.90;999.90;;;3.20;99.90;;;;;;4996110;28;20498;-88
2024/01/08 05:44:46;;;;;;;1999.90;999.90;;;3.30;99.90;;;;;;4995247;28;20022;-86
2024/01/08 05:47:12;;;;;;;1999.90;999.90;;;3.20;99.90;;;;;;4994683;28;20030;-86
2024/01/08 05:49:38;;;;;;;1999.90;999.90;;;3.20;99.90;;;;;;5009261;28;20473;-87
2024/01/08 05:52:05;;;;;;;1999.90;999.90;;;3.20;99.90;;;;;;4995918;28;20041;-87
2024/01/08 05:54:31;;;;;;;1999.90;999.90;;;3.20;99.90;;;;;;5000692;28;20034;-77
2024/01/08 05:56:57;;;;;;;1999.90;999.90;;;3.10;99.90;;;;;;5005130;28;20030;-87
2024/01/08 05:59:23;;;;;;;1999.90;999.90;;;3.00;99.90;;;;;;5004759;28;20041;-87
2024/01/08 06:01:49;;;;;;;1999.90;999.90;;;3.00;99.90;;;;;;4998917;28;20049;-88
2024/01/08 06:04:15;;;;;;;1999.90;999.90;;;3.00;99.90;;;;;;5007023;28;20034;-88
2024/01/08 06:06:41;;;;;;;1999.90;999.90;;;2.90;99.90;;;;;;5007023;28;20034;-89
2024/01/08 06:09:08;;;;;;;1999.90;999.90;;;2.90;99.90;;;;;;5007492;28;20048;-89
2024/01/08 06:11:35;;;;;;;1999.90;999.90;;;2.90;99.90;;;;;;5008162;28;20034;-88
2024/01/08 06:14:03;;;;;;;1999.90;999.90;;;3.00;99.90;;;;;;5004801;28;20030;-89
2024/01/08 06:16:35;;;;;;;1999.90;999.90;;;2.90;99.90;;;;;;5003755;27;20038;-87
2024/01/08 06:19:04;;;;;;;1999.90;999.90;;;2.90;99.90;;;;;;5005617;28;20041;-88
2024/01/08 06:21:30;;;;;;;1999.90;999.90;;;2.80;99.90;;;;;;5037837;28;20049;-88
2024/01/08 06:23:56;;;;;;;1999.90;999.90;;;2.70;99.90;;;;;;5004974;28;20046;-88
2024/01/08 06:26:24;;;;;;;1999.90;999.90;;;2.70;99.90;;;;;;5005880;28;20030;-86
2024/01/08 06:28:50;;;;;;;1999.90;999.90;;;2.70;99.90;;;;;;5006034;28;20015;-88
2024/01/08 06:31:16;;;;;;;211.43;197.30;;;2.50;99.90;;;;;;5004259;28;20041;-87
2024/01/08 06:33:43;;;;;;;1999.90;999.90;;;2.30;99.90;;;;;;5006511;28;20030;-87
2024/01/08 06:36:12;;;;;;;1999.90;999.90;;;2.10;99.90;;;;;;5023460;28;20037;-87
2024/01/08 06:38:38;;;;;;;1999.90;999.90;;;2.10;99.90;;;;;;5007262;28;20038;-87
2024/01/08 06:41:05;;;;;;;1999.90;999.90;;;2.00;99.90;;;;;;5046499;28;20048;-88
2024/01/08 06:43:31;;;;;;;1999.90;999.90;;;1.90;99.90;;;;;;5080207;22;20053;-73
2024/01/08 06:45:57;;;;;;;1999.90;999.90;;;1.90;99.90;;;;;;5044191;28;20037;-73
2024/01/08 06:48:23;;;;;;;1999.90;999.90;;;1.80;99.90;;;;;;5039429;28;20039;-73
2024/01/08 06:50:49;;;;;;;1999.90;999.90;;;1.90;99.90;;;;;;5047754;28;20036;-73
2024/01/08 06:53:15;;;;;;;1999.90;999.90;;;1.90;99.90;;;;;;5045634;28;20033;-73
2024/01/08 06:55:41;;;;;;;1999.90;999.90;;;1.80;99.90;;;;;;5048776;28;20033;-73
2024/01/08 06:58:08;;;;;;;1999.90;999.90;;;1.80;99.90;;;;;;5053019;28;20036;-73
2024/01/08 07:00:34;;;;;;;1999.90;999.90;;;1.80;99.90;;;;;;5049172;28;20045;-73
2024/01/08 07:03:00;;;;;;;1999.90;999.90;;;1.80;99.90;;;;;;5044250;28;20032;-73
2024/01/08 07:05:26;;;;;;;1999.90;999.90;;;1.70;99.90;;;;;;5049019;28;20032;-73
2024/01/08 07:07:53;;;;;;;1999.90;999.90;;;1.80;99.90;;;;;;5033265;28;20033;-73
2024/01/08 07:10:19;;;;;;;1999.90;999.90;;;1.80;99.90;;;;;;5032403;28;20041;-73
2024/01/08 07:12:46;;;;;;;1999.90;999.90;;;1.80;99.90;;;;;;5039839;28;20047;-73
2024/01/08 07:15:45;;;;;;;1999.90;999.90;;;1.80;99.90;;;;;;5050059;28;20037;-73
2024/01/08 07:18:11;;;;;;;1999.90;999.90;;;1.90;99.90;;;;;;5033202;28;20494;-73
2024/01/08 07:20:38;;;;;;;1999.90;999.90;;;1.80;99.90;;;;;;5031265;28;20475;-73
2024/01/08 07:23:06;;;;;;;1999.90;999.90;;;1.80;99.90;;;;;;5049321;28;20364;-73
2024/01/08 07:25:35;;;;;;;1999.90;999.90;;;1.70;99.90;;;;;;5049706;28;20125;-73
2024/01/08 07:28:01;;;;;;;1999.90;999.90;;;1.70;99.90;;;;;;5049829;28;20021;-73
2024/01/08 07:30:27;;;;;;;1999.90;999.90;;;1.80;99.90;;;;;;5051761;28;20510;-73
2024/01/08 07:32:53;;;;;;;1999.90;999.90;;;1.90;99.90;;;;;;5052214;28;20033;-75
2024/01/08 07:35:19;;;;;;;1999.90;999.90;;;1.90;99.90;;;;;;5052760;28;20387;-76
2024/01/08 07:37:45;;;;;;;1999.90;999.90;;;1.90;99.90;;;;;;5051363;28;20043;-76
2024/01/08 07:40:11;;;;;;;1999.90;999.90;;;1.80;99.90;;;;;;5052595;28;20067;-76
2024/01/08 07:42:37;;;;;;;1999.90;999.90;;;1.80;99.90;;;;;;5052044;28;20048;-76
2024/01/08 07:45:04;;;;;;;1999.90;999.90;;;1.80;99.90;;;;;;5050418;28;20067;-74
2024/01/08 07:47:30;;;;;;;1999.90;999.90;;;1.80;99.90;;;;;;5048520;28;20497;-74
2024/01/08 07:49:56;;;;;;;1999.90;999.90;;;1.80;99.90;;;;;;5051876;28;20033;-76
2024/01/08 07:52:22;;;;;;;1999.90;999.90;;;1.80;99.90;;;;;;5050732;28;20033;-74
2024/01/08 07:54:48;;;;;;;1999.90;999.90;;;1.70;99.90;;;;;;5052362;28;20021;-74
2024/01/08 07:57:14;;;;;;;1999.90;999.90;;;1.60;99.90;;;;;;5051128;28;20037;-74
2024/01/08 07:59:40;;;;;;;1999.90;999.90;;;1.60;99.90;;;;;;5034170;28;20033;-75
2024/01/08 08:02:06;;;;;;;1999.90;999.90;;;1.70;99.90;;;;;;5049888;28;20048;-74
2024/01/08 08:04:32;;;;;;;1999.90;999.90;;;1.70;99.90;;;;;;5052127;28;20040;-74
2024/01/08 08:06:59;;;;;;;1999.90;999.90;;;1.70;99.90;;;;;;5051136;28;20037;-74
2024/01/08 08:09:25;;;;;;;1999.90;999.90;;;1.80;99.90;;;;;;5051788;28;20115;-74
2024/01/08 08:11:51;;;;;;;1999.90;999.90;;;1.80;99.90;;;;;;5050855;28;20040;-75
2024/01/08 08:14:17;;;;;;;1999.90;999.90;;;1.70;99.90;;;;;;5050369;28;20092;-74
2024/01/08 08:16:43;;;;;;;1999.90;999.90;;;1.60;99.90;;;;;;5050665;28;20045;-74
2024/01/08 08:19:09;;;;;;;1999.90;999.90;;;1.70;99.90;;;;;;5051906;28;20025;-75
2024/01/08 08:21:38;;;;;;;1999.90;999.90;;;1.70;99.90;;;;;;5048795;28;20045;-75
2024/01/08 08:24:04;;;;;;;1999.90;999.90;;;1.70;99.90;;;;;;5051865;28;20029;-73
2024/01/08 08:26:30;;;;;;;1999.90;999.90;;;1.60;99.90;;;;;;5051718;28;20056;-75
2024/01/08 08:28:56;;;;;;;1999.90;999.90;;;1.50;99.90;;;;;;5052032;28;20037;-75
2024/01/08 08:31:22;;;;;;;1999.90;999.90;;;1.50;99.90;;;;;;5051276;28;20103;-75
2024/01/08 08:33:49;;;;;;;1999.90;999.90;;;1.50;99.90;;;;;;5051986;28;20025;-74
2024/01/08 08:36:15;;;;;;;1999.90;999.90;;;1.50;99.90;;;;;;5050392;28;20048;-74
2024/01/08 08:38:41;;;;;;;1999.90;999.90;;;1.40;99.90;;;;;;5050741;28;20044;-74
2024/01/08 08:41:07;;;;;;;1999.90;999.90;;;1.40;99.90;;;;;;5050206;28;20044;-74
2024/01/08 08:43:34;;;;;;;1999.90;999.90;;;1.30;99.90;;;;;;5051493;28;20053;-74
2024/01/08 08:46:00;;;;;;;1999.90;999.90;;;1.30;99.90;;;;;;5050131;28;20033;-74
2024/01/08 08:48:26;;;;;;;1999.90;999.90;;;1.30;99.90;;;;;;5051592;28;20072;-77
2024/01/08 08:50:52;;;;;;;1999.90;999.90;;;1.30;99.90;;;;;;5051382;28;20036;-76
2024/01/08 08:53:19;;;;;;;1999.90;999.90;;;1.20;99.90;;;;;;5050996;28;20041;-77
2024/01/08 08:55:45;;;;;;;119.40;112.70;;;1.10;99.90;;;;;;5046184;28;20029;-79
2024/01/08 08:58:11;;;;;;;709.50;373.83;;;2.10;99.90;;;;;;5048606;28;20044;-72
2024/01/08 09:00:37;;;;;;;1999.90;999.90;;;2.30;99.90;;;;;;5046972;28;20041;-78
2024/01/08 09:03:03;;;;;;;1999.90;999.90;;;2.40;99.90;;;;;;5030749;28;20400;-70
2024/01/08 09:05:30;;;;;;;1999.90;999.90;;;2.50;99.90;;;;;;5042944;28;20439;-74
2024/01/08 09:07:56;;;;;;;1999.90;999.90;;;2.80;99.90;;;;;;5046748;28;20360;-74
2024/01/08 09:10:23;;;;;;;1999.90;999.90;;;2.80;99.90;;;;;;5048678;28;20025;-68
2024/01/08 09:12:49;;;;;;;1999.90;999.90;;;2.60;99.90;;;;;;5032153;28;20048;-71
2024/01/08 09:15:15;;;;;;;1999.90;999.90;;;2.70;99.90;;;;;;5033876;28;20684;-68
2024/01/08 09:17:41;;;;;;;1999.90;999.90;;;2.90;99.90;;;;;;5050093;28;20037;-73
2024/01/08 09:20:11;;;;;;;1999.90;999.90;;;3.00;99.90;;;;;;5050274;28;20037;-74
2024/01/08 09:22:37;;;;;;;1999.90;999.90;;;2.90;99.90;;;;;;5049097;28;20041;-69
2024/01/08 09:25:04;;;;;;;1999.90;999.90;;;2.70;99.90;;;;;;5051040;28;20033;-74
2024/01/08 09:27:31;;;;;;;1999.90;999.90;;;2.80;99.90;;;;;;5051278;28;20375;-76
2024/01/08 09:29:57;;;;;;;1999.90;999.90;;;2.60;99.90;;;;;;5053493;28;20041;-73
2024/01/08 09:32:27;;;;;;;1999.90;999.90;;;2.70;99.90;;;;;;5053599;28;20067;-73
2024/01/08 09:34:53;;;;;;;1999.90;999.90;;;3.00;99.90;;;;;;5054301;28;20495;-73
2024/01/08 09:37:20;;;;;;;1999.90;999.90;;;3.50;99.90;;;;;;5051595;28;20399;-73
2024/01/08 09:39:46;;;;;;;1999.90;999.90;;;3.60;99.90;;;;;;5052892;28;20478;-73
2024/01/08 09:42:12;;;;;;;1999.90;999.90;;;3.70;99.90;;;;;;5052373;28;20487;-73
2024/01/08 09:44:38;;;;;;;1999.90;999.90;;;3.50;99.90;;;;;;5053032;28;20040;-68
2024/01/08 09:47:05;;;;;;;1999.90;999.90;;;3.20;99.90;;;;;;5034693;28;20060;-74
2024/01/08 09:49:32;;;;;;;1999.90;999.90;;;2.90;99.90;;;;;;5052887;28;20040;-75
2024/01/08 09:52:01;;;;;;;1999.90;999.90;;;3.00;99.90;;;;;;5038146;28;20034;-76
2024/01/08 09:54:27;;;;;;;1999.90;999.90;;;2.90;99.90;;;;;;5017538;28;20033;-76
2024/01/08 09:56:54;;;;;;;1999.90;999.90;;;2.90;99.90;;;;;;5011320;28;20041;-76
2024/01/08 09:59:20;;;;;;;1999.90;999.90;;;2.60;99.90;;;;;;5053091;28;20423;-76
2024/01/08 10:01:46;;;;;;;1999.90;999.90;;;2.70;99.90;;;;;;5042481;28;20049;-76
2024/01/08 10:04:13;;;;;;;1999.90;999.90;;;3.10;99.90;;;;;;5054539;28;20484;-76
2024/01/08 10:06:39;;;;;;;1999.90;999.90;;;3.10;99.90;;;;;;5052240;28;20368;-76
2024/01/08 10:09:05;;;;;;;1999.90;999.90;;;2.90;99.90;;;;;;5058043;28;20418;-77
2024/01/08 10:11:31;;;;;;;1999.90;999.90;;;2.90;99.90;;;;;;5042853;28;20041;-76
2024/01/08 10:13:57;;;;;;;1999.90;999.90;;;2.90;99.90;;;;;;5044761;28;20041;-75
2024/01/08 10:16:27;;;;;;;1999.90;999.90;;;2.70;99.90;;;;;;5053508;28;20044;-78
2024/01/08 10:18:53;;;;;;;1999.90;999.90;;;2.70;99.90;;;;;;5052465;28;20037;-77
2024/01/08 10:21:19;;;;;;;1999.90;999.90;;;2.70;99.90;;;;;;5035378;28;20044;-77
2024/01/08 10:23:46;;;;;;;1999.90;999.90;;;2.70;99.90;;;;;;5033138;28;20032;-77
2024/01/08 10:26:13;;;;;;;1999.90;999.90;;;2.90;99.90;;;;;;5048886;28;20036;-77
2024/01/08 10:28:40;;;;;;;1999.90;999.90;;;2.70;99.90;;;;;;5053577;28;20024;-77
2024/01/08 10:31:08;;;;;;;1999.90;999.90;;;2.70;99.90;;;;;;5052390;28;20488;-77
2024/01/08 10:33:34;;;;;;;1999.90;999.90;;;2.80;99.90;;;;;;5052708;28;20033;-76
2024/01/08 10:36:04;;;;;;;1999.90;999.90;;;2.90;99.90;;;;;;5052192;28;20025;-77
2024/01/08 10:38:34;;;;;;;1999.90;999.90;;;3.00;99.90;;;;;;5033879;28;20033;-77
2024/01/08 10:41:01;;;;;;;1999.90;999.90;;;2.90;99.90;;;;;;5045384;28;20512;-74
2024/01/08 10:43:28;;;;;;;1999.90;999.90;;;2.50;99.90;;;;;;5053566;28;20041;-74
2024/01/08 10:45:59;;;;;;;1999.90;999.90;;;2.60;99.90;;;;;;5052543;28;20047;-74
2024/01/08 10:48:48;;;;;;;1999.90;999.90;;;2.70;99.90;;;;;;5050466;28;20032;-74
2024/01/08 10:51:15;;;;;;;1999.90;999.90;;;2.70;99.90;;;;;;5051545;28;20064;-74
2024/01/08 10:53:49;;;;;;;1999.90;999.90;;;2.50;99.90;;;;;;5051926;28;20029;-74
2024/01/08 10:56:16;;;;;;;1999.90;999.90;;;2.60;99.90;;;;;;5049817;28;20025;-75
2024/01/08 10:59:06;;;;;;;1999.90;999.90;;;2.70;99.90;;;;;;5052309;28;20048;-79
2024/01/08 11:01:32;;;;;;;1999.90;999.90;;;2.60;99.90;;;;;;5053236;28;20068;-79
2024/01/08 11:04:03;;;;;;;1999.90;999.90;;;2.50;99.90;;;;;;5055775;28;20036;-79
2024/01/08 11:06:29;;;;;;;1999.90;999.90;;;2.60;99.90;;;;;;5056826;28;20045;-80
2024/01/08 11:08:57;;;;;;;1999.90;999.90;;;2.90;99.90;;;;;;5057501;28;20029;-80
2024/01/08 11:11:23;;;;;;;1999.90;999.90;;;3.10;99.90;;;;;;5049881;28;20495;-80
2024/01/08 11:13:49;;;;;;;1999.90;999.90;;;3.00;99.90;;;;;;5042708;28;20491;-80
2024/01/08 11:16:27;;;;;;;1999.90;999.90;;;3.00;99.90;;;;;;5041524;28;20036;-78
2024/01/08 11:19:18;;;;;;;1999.90;999.90;;;3.00;99.90;;;;;;5033421;28;20021;-80
2024/01/08 11:21:45;;;;;;;1999.90;999.90;;;2.80;99.90;;;;;;5040043;28;20045;-74
2024/01/08 11:24:11;;;;;;;1999.90;999.90;;;2.90;99.90;;;;;;5032134;28;20033;-77
2024/01/08 11:26:44;;;;;;;1999.90;999.90;;;3.00;99.90;;;;;;5051110;28;20262;-77
2024/01/08 11:29:10;;;;;;;1999.90;999.90;;;3.10;99.90;;;;;;5052431;28;20047;-75
2024/01/08 11:31:36;;;;;;;1999.90;999.90;;;2.90;99.90;;;;;;5049453;28;20099;-75
2024/01/08 11:34:14;;;;;;;1999.90;999.90;;;2.60;99.90;;;;;;5052191;28;20032;-75
2024/01/08 11:36:47;;;;;;;1999.90;999.90;;;2.40;99.90;;;;;;5051965;28;20055;-75
2024/01/08 11:39:19;;;;;;;1999.90;999.90;;;2.40;99.90;;;;;;5052350;28;20029;-76
2024/01/08 11:41:45;;;;;;;1999.90;999.90;;;2.20;99.90;;;;;;5048209;28;20052;-75
2024/01/08 11:44:14;;;;;;;1999.90;999.90;;;2.30;99.90;;;;;;5052324;28;20017;-74
2024/01/08 11:46:44;;;;;;;1999.90;999.90;;;2.20;99.90;;;;;;5050487;28;20503;-76
2024/01/08 11:49:11;;;;;;;1999.90;999.90;;;2.30;99.90;;;;;;5051965;28;20076;-76
2024/01/08 11:51:41;;;;;;;1999.90;999.90;;;2.40;99.90;;;;;;5050949;28;20430;-76
2024/01/08 11:54:07;;;;;;;1999.90;999.90;;;2.30;99.90;;;;;;5050763;28;20033;-76
2024/01/08 11:56:34;;;;;;;1999.90;999.90;;;2.30;99.90;;;;;;5034110;28;20044;-76
2024/01/08 11:59:00;;;;;;;1999.90;999.90;;;2.20;99.90;;;;;;5051122;28;20028;-75
2024/01/08 12:01:27;;;;;;;1999.90;999.90;;;2.20;99.90;;;;;;5039302;28;20053;-76
2024/01/08 12:03:59;;;;;;;1999.90;999.90;;;2.30;99.90;;;;;;5031229;28;20038;-76
2024/01/08 12:06:28;;;;;;;1999.90;999.90;;;2.30;99.90;;;;;;5031741;28;20044;-75
2024/01/08 12:08:54;;;;;;;1999.90;999.90;;;2.20;99.90;;;;;;5030116;28;20155;-75
2024/01/08 12:11:24;;;;;;;1999.90;999.90;;;2.10;99.90;;;;;;5032338;28;20037;-75
2024/01/08 12:13:52;;;;;;;1999.90;999.90;;;2.10;99.90;;;;;;5031556;28;20040;-75